Time;durP1;ratioP1;P1;durP2;ratioP2;P2;SDS_P1;SDS_P2;PMS_P1;PMS_P2;Temp;Humidity;BMP_temperature;BMP_pressure;BME280_temperature;BME280_humidity;BME280_pressure;Samples;Min_cycle;Max_cycle;Signal;HPM_P1;HPM_P2
2022/01/21 00:01:00;;;;;;;25.55;4.25;;;3.80;99.90;;;;;;4197524;28;20045;-79
2022/01/21 00:03:02;;;;;;;15.07;3.35;;;3.70;99.90;;;;;;4160040;28;20224;-80
2022/01/21 00:05:05;;;;;;;12.40;3.40;;;3.70;99.90;;;;;;4166440;28;20073;-80
2022/01/21 00:07:07;;;;;;;14.80;2.95;;;3.60;99.90;;;;;;4161551;28;20046;-81
2022/01/21 00:09:09;;;;;;;12.73;3.40;;;3.50;99.90;;;;;;4162139;28;20128;-79
2022/01/21 00:11:13;;;;;;;18.50;4.00;;;3.50;99.90;;;;;;4162448;28;20076;-81
2022/01/21 00:13:22;;;;;;;16.90;3.80;;;3.50;99.90;;;;;;4175203;28;20049;-80
2022/01/21 00:15:24;;;;;;;16.00;4.18;;;3.50;99.90;;;;;;4157841;28;20497;-80
2022/01/21 00:17:26;;;;;;;15.25;3.17;;;3.50;99.90;;;;;;4160261;28;20060;-79
2022/01/21 00:19:35;;;;;;;16.20;3.55;;;3.50;99.90;;;;;;4146435;28;20145;-79
2022/01/21 00:31:00;;;;;;;13.25;3.17;;;3.60;99.90;;;;;;4166297;28;20087;-79
2022/01/21 00:33:02;;;;;;;10.82;2.85;;;3.60;99.90;;;;;;4164687;28;20076;-78
2022/01/21 00:35:06;;;;;;;17.75;2.65;;;3.60;99.90;;;;;;4166119;28;20081;-80
2022/01/21 00:37:08;;;;;;;12.18;2.58;;;3.60;99.90;;;;;;4164072;28;20045;-79
2022/01/21 00:39:11;;;;;;;15.77;3.40;;;3.60;99.90;;;;;;4161505;28;20069;-79
2022/01/21 00:41:19;;;;;;;15.50;3.30;;;3.60;99.90;;;;;;4163514;28;20085;-82
2022/01/21 00:43:30;;;;;;;15.65;2.88;;;3.50;99.90;;;;;;4149682;28;20049;-80
2022/01/21 00:45:33;;;;;;;11.00;2.92;;;3.50;99.90;;;;;;4162734;28;20050;-79
2022/01/21 00:47:35;;;;;;;10.43;3.13;;;3.60;99.90;;;;;;4163901;28;20129;-81
2022/01/21 00:49:37;;;;;;;10.15;2.90;;;3.50;99.90;;;;;;4146719;28;20084;-79
2022/01/21 00:51:39;;;;;;;9.98;3.00;;;3.50;99.90;;;;;;4146048;28;20074;-82
2022/01/21 00:53:41;;;;;;;14.50;3.90;;;3.60;99.90;;;;;;4154694;28;20073;-80
2022/01/21 00:55:43;;;;;;;13.85;2.95;;;3.60;99.90;;;;;;4147579;28;20052;-79
2022/01/21 00:57:45;;;;;;;17.60;3.30;;;3.60;99.90;;;;;;4146473;28;20556;-80
2022/01/21 00:59:46;;;;;;;15.50;3.38;;;3.60;99.90;;;;;;4146134;28;20046;-80
2022/01/21 01:01:48;;;;;;;16.35;3.65;;;3.60;99.90;;;;;;4157602;28;20053;-79
2022/01/21 01:03:51;;;;;;;11.60;3.10;;;3.70;99.90;;;;;;4162330;28;20045;-81
2022/01/21 01:05:53;;;;;;;19.10;3.67;;;3.70;99.90;;;;;;4162458;28;20058;-79
2022/01/21 01:07:55;;;;;;;14.93;3.55;;;3.60;99.90;;;;;;4160958;28;20077;-79
2022/01/21 01:09:58;;;;;;;14.13;3.22;;;3.60;99.90;;;;;;4145407;28;20046;-80
2022/01/21 01:21:16;;;;;;;19.50;4.47;;;3.60;99.90;;;;;;4152449;28;20057;-79
2022/01/21 01:23:28;;;;;;;14.40;3.70;;;3.70;99.90;;;;;;4160871;28;20141;-79
2022/01/21 01:27:51;;;;;;;9.15;3.80;;;3.60;99.90;;;;;;4148017;28;20105;-82
2022/01/21 01:29:53;;;;;;;13.73;3.63;;;3.70;99.90;;;;;;4150619;28;20085;-81
2022/01/21 01:31:55;;;;;;;9.27;3.53;;;3.70;99.90;;;;;;4161879;28;20069;-80
2022/01/21 01:33:59;;;;;;;13.32;3.28;;;3.60;99.90;;;;;;4162213;28;20045;-81
2022/01/21 01:36:03;;;;;;;13.15;3.13;;;3.60;99.90;;;;;;4162556;28;20370;-80
2022/01/21 01:40:22;;;;;;;9.18;3.00;;;3.70;99.90;;;;;;4157955;28;20084;-81
2022/01/21 01:51:28;;;;;;;19.90;5.25;;;3.90;99.90;;;;;;4147801;28;20672;-80
2022/01/21 01:53:40;;;;;;;11.95;3.53;;;3.90;99.90;;;;;;4144652;28;20129;-79
2022/01/21 01:55:43;;;;;;;12.75;3.17;;;3.90;99.90;;;;;;4151817;28;20050;-80
2022/01/21 01:57:45;;;;;;;12.85;3.30;;;3.90;99.90;;;;;;4161948;28;20346;-80
2022/01/21 01:59:47;;;;;;;7.75;2.90;;;3.90;99.90;;;;;;4162273;28;20053;-80
2022/01/21 02:01:55;;;;;;;16.27;3.30;;;3.80;99.90;;;;;;4161347;28;20057;-79
2022/01/21 02:03:57;;;;;;;19.05;3.90;;;3.80;99.90;;;;;;4185459;28;20451;-79
2022/01/21 02:05:59;;;;;;;16.92;4.20;;;3.80;99.90;;;;;;4143607;28;20140;-80
2022/01/21 02:08:02;;;;;;;14.90;4.03;;;3.80;99.90;;;;;;4179404;28;20045;-82
2022/01/21 02:10:04;;;;;;;11.98;3.92;;;3.80;99.90;;;;;;4161694;28;20528;-80
2022/01/21 02:12:07;;;;;;;18.15;3.58;;;3.80;99.90;;;;;;4161671;28;20493;-80
2022/01/21 02:14:14;;;;;;;12.10;3.28;;;3.80;99.90;;;;;;4161672;28;20128;-80
2022/01/21 02:23:12;;;;;;;12.73;3.25;;;3.80;99.90;;;;;;4147643;28;20489;-79
2022/01/21 02:25:20;;;;;;;9.35;3.13;;;3.70;99.90;;;;;;4143965;28;20077;-80
2022/01/21 02:27:22;;;;;;;9.80;3.20;;;3.70;99.90;;;;;;4154292;28;20553;-80
2022/01/21 02:29:31;;;;;;;14.70;3.25;;;3.70;99.90;;;;;;4161958;28;20081;-80
2022/01/21 02:31:34;;;;;;;7.47;2.88;;;3.70;99.90;;;;;;4159240;28;20591;-81
2022/01/21 02:33:36;;;;;;;10.52;2.92;;;3.70;99.90;;;;;;4159430;28;20421;-80
2022/01/21 02:35:38;;;;;;;10.23;2.67;;;3.60;99.90;;;;;;4161559;28;20076;-80
2022/01/21 02:37:40;;;;;;;12.60;3.50;;;3.60;99.90;;;;;;4161899;28;20077;-81
2022/01/21 02:39:43;;;;;;;13.20;2.90;;;3.70;99.90;;;;;;4159554;28;20571;-80
2022/01/21 02:41:45;;;;;;;10.85;2.65;;;3.60;99.90;;;;;;4160701;28;20049;-83
2022/01/21 02:43:47;;;;;;;9.40;2.80;;;3.60;99.90;;;;;;4161476;28;20049;-80
2022/01/21 02:45:49;;;;;;;15.30;2.90;;;3.60;99.90;;;;;;4158998;28;20045;-80
2022/01/21 02:47:51;;;;;;;6.28;2.67;;;3.60;99.90;;;;;;4160811;28;20049;-79
2022/01/21 02:49:53;;;;;;;10.15;2.92;;;3.60;99.90;;;;;;4159211;28;20160;-80
2022/01/21 02:51:57;;;;;;;14.65;3.35;;;3.60;99.90;;;;;;4161452;28;20476;-80
2022/01/21 02:54:05;;;;;;;8.98;2.97;;;3.60;99.90;;;;;;4152678;28;20420;-81
2022/01/21 02:56:11;;;;;;;15.93;3.13;;;3.60;99.90;;;;;;4162193;28;20045;-80
2022/01/21 02:58:12;;;;;;;9.40;1.98;;;3.60;99.90;;;;;;4161935;28;20523;-83
2022/01/21 03:00:15;;;;;;;10.30;2.95;;;3.60;99.90;;;;;;4160010;28;20049;-82
2022/01/21 03:02:17;;;;;;;10.82;2.38;;;3.60;99.90;;;;;;4156300;28;20103;-80
2022/01/21 03:05:03;;;;;;;7.63;2.45;;;3.60;99.90;;;;;;4162597;28;20054;-79
2022/01/21 03:06:48;;;;;;;14.88;3.13;;;3.60;99.90;;;;;;4154283;28;20101;-82
2022/01/21 03:08:52;;;;;;;12.07;2.63;;;3.60;99.90;;;;;;4147126;28;20042;-81
2022/01/21 03:10:55;;;;;;;8.93;2.40;;;3.60;99.90;;;;;;4146252;28;20073;-80
2022/01/21 03:12:57;;;;;;;12.00;2.63;;;3.60;99.90;;;;;;4144552;28;20038;-81
2022/01/21 03:14:59;;;;;;;9.95;2.75;;;3.70;99.90;;;;;;4147782;28;20049;-82
2022/01/21 03:17:01;;;;;;;11.68;2.63;;;3.70;99.90;;;;;;4147435;28;20046;-79
2022/01/21 03:19:03;;;;;;;10.27;2.85;;;3.70;99.90;;;;;;4143933;28;20042;-80
2022/01/21 03:21:05;;;;;;;10.70;2.83;;;3.70;99.90;;;;;;4160428;28;20409;-80
2022/01/21 03:23:08;;;;;;;16.05;3.00;;;3.70;99.90;;;;;;4161214;28;20536;-82
2022/01/21 03:25:10;;;;;;;8.23;2.35;;;3.70;99.90;;;;;;4161077;28;20069;-80
2022/01/21 03:27:12;;;;;;;10.18;2.95;;;3.70;99.90;;;;;;4146108;28;20465;-80
2022/01/21 03:29:14;;;;;;;11.05;2.70;;;3.70;99.90;;;;;;4158616;28;20045;-82
2022/01/21 03:31:16;;;;;;;7.70;2.75;;;3.70;99.90;;;;;;4160657;28;20046;-81
2022/01/21 03:33:18;;;;;;;19.38;3.17;;;3.70;99.90;;;;;;4159326;28;20037;-84
2022/01/21 03:35:20;;;;;;;17.48;2.72;;;3.70;99.90;;;;;;4155702;28;20045;-83
2022/01/21 03:37:22;;;;;;;10.50;2.63;;;3.70;99.90;;;;;;4159737;28;20053;-80
2022/01/21 03:39:24;;;;;;;13.82;3.00;;;3.70;99.90;;;;;;4158536;28;20101;-81
2022/01/21 03:41:26;;;;;;;10.45;2.70;;;3.70;99.90;;;;;;4160725;28;20057;-79
2022/01/21 03:43:29;;;;;;;9.60;2.63;;;3.70;99.90;;;;;;4161047;28;20073;-81
2022/01/21 03:45:31;;;;;;;8.00;2.50;;;3.70;99.90;;;;;;4159261;28;20042;-80
2022/01/21 03:47:33;;;;;;;13.43;2.80;;;3.70;99.90;;;;;;4168160;28;20049;-81
2022/01/21 03:49:41;;;;;;;9.48;2.33;;;3.70;99.90;;;;;;4178117;28;20069;-80
2022/01/21 03:51:42;;;;;;;7.38;2.13;;;3.70;99.90;;;;;;4178219;28;20045;-81
2022/01/21 03:53:46;;;;;;;10.13;1.92;;;3.70;99.90;;;;;;4174500;28;20425;-81
2022/01/21 03:55:51;;;;;;;23.63;3.05;;;3.80;99.90;;;;;;4155822;28;20056;-80
2022/01/21 03:57:53;;;;;;;10.82;2.60;;;3.80;99.90;;;;;;4147508;28;20530;-81
2022/01/21 03:59:55;;;;;;;10.57;2.42;;;3.80;99.90;;;;;;4147957;28;20057;-81
2022/01/21 04:01:57;;;;;;;18.77;3.03;;;3.80;99.90;;;;;;4164886;28;20077;-82
2022/01/21 04:03:59;;;;;;;13.55;2.92;;;3.80;99.90;;;;;;4165455;28;20061;-83
2022/01/21 04:06:01;;;;;;;10.48;2.50;;;3.80;99.90;;;;;;4165763;28;20115;-80
2022/01/21 04:08:05;;;;;;;12.52;2.80;;;3.80;99.90;;;;;;4165441;28;20045;-80
2022/01/21 04:10:08;;;;;;;11.73;3.17;;;3.80;99.90;;;;;;4166250;28;20046;-81
2022/01/21 04:12:10;;;;;;;8.95;2.70;;;3.90;99.90;;;;;;4150603;28;20078;-79
2022/01/21 04:14:12;;;;;;;10.63;2.75;;;3.90;99.90;;;;;;4152033;28;20046;-80
2022/01/21 04:16:14;;;;;;;12.27;2.65;;;3.90;99.90;;;;;;4150014;28;20056;-83
2022/01/21 04:18:17;;;;;;;8.48;2.30;;;3.90;99.90;;;;;;4155413;28;20536;-80
2022/01/21 04:20:19;;;;;;;12.93;2.63;;;3.90;99.90;;;;;;4146363;28;20544;-80
2022/01/21 04:22:22;;;;;;;14.50;2.92;;;3.90;99.90;;;;;;4147022;28;20050;-80
2022/01/21 04:24:24;;;;;;;11.70;3.35;;;3.90;99.90;;;;;;4151109;28;20092;-81
2022/01/21 04:26:29;;;;;;;7.45;2.28;;;3.90;99.90;;;;;;4147223;28;20552;-84
2022/01/21 04:28:33;;;;;;;13.15;2.67;;;3.90;99.90;;;;;;4157050;28;20068;-81
2022/01/21 04:30:36;;;;;;;9.18;2.85;;;3.90;99.90;;;;;;4148217;28;20501;-82
2022/01/21 04:32:38;;;;;;;12.50;2.58;;;3.90;99.90;;;;;;4153539;28;20045;-80
2022/01/21 04:34:40;;;;;;;8.43;2.15;;;3.80;99.90;;;;;;4147210;28;20053;-82
2022/01/21 04:36:43;;;;;;;11.60;3.17;;;3.80;99.90;;;;;;4159283;28;20567;-80
2022/01/21 04:38:45;;;;;;;10.75;2.72;;;3.80;99.90;;;;;;4161980;28;20053;-81
2022/01/21 04:40:55;;;;;;;12.80;2.42;;;3.80;99.90;;;;;;4147623;28;20493;-80
2022/01/21 04:47:40;;;;;;;13.73;2.80;;;3.80;99.90;;;;;;4164325;28;20087;-82
2022/01/21 04:49:42;;;;;;;10.00;2.40;;;3.80;99.90;;;;;;4162521;28;20246;-82
2022/01/21 04:52:02;;;;;;;9.43;2.25;;;3.80;99.90;;;;;;4160378;28;20096;-83
2022/01/21 04:54:04;;;;;;;10.27;2.50;;;3.80;99.90;;;;;;4163262;28;20049;-80
2022/01/21 04:56:06;;;;;;;11.80;2.63;;;3.70;99.90;;;;;;4146662;28;20054;-80
2022/01/21 04:58:08;;;;;;;5.57;1.85;;;3.70;99.90;;;;;;4155494;28;20147;-80
2022/01/21 05:00:10;;;;;;;15.50;3.35;;;3.70;99.90;;;;;;4162734;28;20528;-80
2022/01/21 05:02:12;;;;;;;8.75;2.25;;;3.70;99.90;;;;;;4146533;28;20533;-80
2022/01/21 05:04:14;;;;;;;8.05;2.22;;;3.70;99.90;;;;;;4144399;28;20046;-81
2022/01/21 05:06:16;;;;;;;10.38;2.90;;;3.70;99.90;;;;;;4157347;28;20505;-80
2022/01/21 05:08:29;;;;;;;12.77;2.72;;;3.70;99.90;;;;;;4162629;28;20498;-82
2022/01/21 05:10:31;;;;;;;10.88;2.53;;;3.70;99.90;;;;;;4162761;28;20049;-82
2022/01/21 05:12:37;;;;;;;7.90;2.70;;;3.60;99.90;;;;;;4160948;28;20045;-80
2022/01/21 05:14:50;;;;;;;17.70;2.55;;;3.70;99.90;;;;;;4157925;28;20075;-80
2022/01/21 05:17:01;;;;;;;10.63;2.40;;;3.60;99.90;;;;;;4145333;28;20050;-84
2022/01/21 05:19:07;;;;;;;14.95;2.25;;;3.60;99.90;;;;;;4148315;28;20533;-82
2022/01/21 05:21:10;;;;;;;9.38;2.05;;;3.60;99.90;;;;;;4164912;28;20334;-89
2022/01/21 05:23:12;;;;;;;16.77;2.38;;;3.60;99.90;;;;;;4162971;28;23364;-82
2022/01/21 05:25:18;;;;;;;11.38;2.42;;;3.60;99.90;;;;;;4160754;28;20480;-82
2022/01/21 05:27:20;;;;;;;9.35;2.20;;;3.60;99.90;;;;;;4162836;28;20417;-80
2022/01/21 05:29:25;;;;;;;6.38;1.80;;;3.60;99.90;;;;;;4164088;28;20398;-80
2022/01/21 05:31:27;;;;;;;8.82;2.10;;;3.60;99.90;;;;;;4162300;28;20079;-82
2022/01/21 05:33:29;;;;;;;13.40;2.33;;;3.60;99.90;;;;;;4160138;28;20053;-80
2022/01/21 05:35:31;;;;;;;9.02;2.50;;;3.60;99.90;;;;;;4162464;28;20050;-80
2022/01/21 05:37:32;;;;;;;16.88;3.08;;;3.60;99.90;;;;;;4145980;28;20108;-80
2022/01/21 05:39:35;;;;;;;16.70;3.00;;;3.60;99.90;;;;;;4146326;28;20140;-80
2022/01/21 05:41:38;;;;;;;9.77;2.50;;;3.50;99.90;;;;;;4150296;28;20168;-81
2022/01/21 05:43:46;;;;;;;13.15;2.33;;;3.50;99.90;;;;;;4162721;28;20128;-82
2022/01/21 05:48:09;;;;;;;11.68;2.60;;;3.40;99.90;;;;;;4162561;28;20516;-84
2022/01/21 05:50:11;;;;;;;7.88;2.30;;;3.40;99.90;;;;;;4149860;28;20090;-81
2022/01/21 05:52:17;;;;;;;11.30;2.58;;;3.40;99.90;;;;;;4149415;28;20501;-82
2022/01/21 05:54:25;;;;;;;11.50;2.53;;;3.40;99.90;;;;;;4153745;28;20093;-79
2022/01/21 05:56:27;;;;;;;9.05;2.40;;;3.30;99.90;;;;;;4163533;28;20080;-81
2022/01/21 05:58:32;;;;;;;13.43;2.60;;;3.30;99.90;;;;;;4162194;28;20053;-80
2022/01/21 06:00:35;;;;;;;12.50;2.58;;;3.20;99.90;;;;;;4162919;28;20092;-81
2022/01/21 06:02:38;;;;;;;15.35;2.47;;;3.20;99.90;;;;;;4160397;28;20496;-79
2022/01/21 06:04:43;;;;;;;18.60;2.60;;;3.20;99.90;;;;;;4162366;28;20311;-82
2022/01/21 06:06:45;;;;;;;11.02;2.80;;;3.20;99.90;;;;;;4162264;28;20567;-83
2022/01/21 06:08:47;;;;;;;9.10;2.85;;;3.20;99.90;;;;;;4162244;28;20441;-80
2022/01/21 06:10:49;;;;;;;13.50;2.45;;;3.20;99.90;;;;;;4160070;28;20083;-82
2022/01/21 06:12:50;;;;;;;16.58;3.05;;;3.20;99.90;;;;;;4156136;28;20084;-80
2022/01/21 06:14:52;;;;;;;22.05;3.55;;;3.20;99.90;;;;;;4160696;28;20520;-80
2022/01/21 06:16:55;;;;;;;17.75;3.30;;;3.20;99.90;;;;;;4162566;28;20576;-80
2022/01/21 06:18:56;;;;;;;13.95;2.92;;;3.20;99.90;;;;;;4146247;28;20513;-80
2022/01/21 06:20:58;;;;;;;18.38;4.70;;;3.30;99.90;;;;;;4145310;28;20058;-82
2022/01/21 06:23:00;;;;;;;23.92;3.67;;;3.30;99.90;;;;;;4154942;28;20088;-80
2022/01/21 06:25:03;;;;;;;33.45;6.88;;;3.30;99.90;;;;;;4161448;28;20053;-80
2022/01/21 06:27:05;;;;;;;33.63;7.72;;;3.30;99.90;;;;;;4161496;28;20049;-80
2022/01/21 06:29:06;;;;;;;18.58;4.53;;;3.30;99.90;;;;;;4162066;28;20558;-80
2022/01/21 06:31:08;;;;;;;28.23;7.70;;;3.30;99.90;;;;;;4159320;28;20120;-81
2022/01/21 06:33:10;;;;;;;37.30;9.07;;;3.40;99.90;;;;;;4161019;28;20056;-82
2022/01/21 06:35:13;;;;;;;34.58;8.25;;;3.40;99.90;;;;;;4161906;28;20483;-80
2022/01/21 06:37:15;;;;;;;25.85;6.72;;;3.40;99.90;;;;;;4161332;28;20160;-83
2022/01/21 06:39:17;;;;;;;28.35;7.15;;;3.40;99.90;;;;;;4159481;28;20590;-80
2022/01/21 06:41:19;;;;;;;32.63;7.72;;;3.50;99.90;;;;;;4161298;28;20089;-81
2022/01/21 06:43:21;;;;;;;27.35;6.60;;;3.50;99.90;;;;;;4144957;28;20084;-80
2022/01/21 06:45:23;;;;;;;20.00;4.20;;;3.50;99.90;;;;;;4145020;28;20046;-80
2022/01/21 06:47:25;;;;;;;17.52;4.03;;;3.50;99.90;;;;;;4157193;28;20048;-80
2022/01/21 06:49:27;;;;;;;24.52;4.05;;;3.60;99.90;;;;;;4144744;28;20634;-80
2022/01/21 06:51:29;;;;;;;24.92;5.53;;;3.60;99.90;;;;;;4144666;28;20053;-80
2022/01/21 06:53:31;;;;;;;17.42;4.57;;;3.60;99.90;;;;;;4146656;28;20132;-79
2022/01/21 06:55:33;;;;;;;16.02;4.40;;;3.70;99.90;;;;;;4161185;28;20124;-79
2022/01/21 06:57:38;;;;;;;20.55;4.97;;;3.70;99.90;;;;;;4161512;28;20065;-81
2022/01/21 06:59:41;;;;;;;18.13;4.22;;;3.70;99.90;;;;;;4146437;28;20501;-80
2022/01/21 07:01:42;;;;;;;15.98;4.35;;;3.70;99.90;;;;;;4145987;28;20128;-81
2022/01/21 07:03:44;;;;;;;19.25;4.60;;;3.70;99.90;;;;;;4158632;28;20438;-80
2022/01/21 07:05:46;;;;;;;19.08;4.22;;;3.70;99.90;;;;;;4162943;28;20444;-81
2022/01/21 07:07:49;;;;;;;16.55;3.22;;;3.70;99.90;;;;;;4159132;28;20077;-81
2022/01/21 07:09:51;;;;;;;14.05;3.47;;;3.70;99.90;;;;;;4160234;28;20077;-80
2022/01/21 07:11:53;;;;;;;22.50;3.95;;;3.60;99.90;;;;;;4161814;28;20480;-80
2022/01/21 07:13:55;;;;;;;17.20;3.92;;;3.60;99.90;;;;;;4148814;28;20081;-83
2022/01/21 07:15:59;;;;;;;15.57;3.58;;;3.60;99.90;;;;;;4148650;28;20077;-85
2022/01/21 07:18:02;;;;;;;17.83;3.90;;;3.60;99.90;;;;;;4145696;28;20053;-80
2022/01/21 07:20:05;;;;;;;13.63;3.70;;;3.60;99.90;;;;;;4145772;28;20054;-80
2022/01/21 07:22:07;;;;;;;16.88;3.90;;;3.60;99.90;;;;;;4162139;28;20081;-80
2022/01/21 07:24:09;;;;;;;12.23;3.22;;;3.60;99.90;;;;;;4162015;28;20053;-82
2022/01/21 07:26:12;;;;;;;12.98;3.15;;;3.60;99.90;;;;;;4163560;28;20042;-80
2022/01/21 07:28:14;;;;;;;9.55;3.00;;;3.60;99.90;;;;;;4164386;28;20133;-81
2022/01/21 07:30:16;;;;;;;23.52;5.32;;;3.60;99.90;;;;;;4164318;28;20571;-80
2022/01/21 07:32:18;;;;;;;18.08;7.45;;;3.70;99.90;;;;;;4157858;28;20069;-80
2022/01/21 07:34:24;;;;;;;12.20;4.82;;;3.70;99.90;;;;;;4163881;28;20053;-80
2022/01/21 07:36:26;;;;;;;21.50;5.18;;;3.70;99.90;;;;;;4163574;28;20137;-80
2022/01/21 07:38:29;;;;;;;14.82;4.32;;;3.70;99.90;;;;;;4163587;28;20049;-81
2022/01/21 07:40:30;;;;;;;16.38;5.43;;;3.80;99.90;;;;;;4147802;28;20054;-80
2022/01/21 07:42:32;;;;;;;13.68;5.32;;;3.80;99.90;;;;;;4148721;28;20050;-81
2022/01/21 07:44:35;;;;;;;17.85;4.55;;;3.80;99.90;;;;;;4179082;28;20049;-81
2022/01/21 07:46:36;;;;;;;17.83;4.45;;;3.80;99.90;;;;;;4163678;28;20045;-79
2022/01/21 07:48:38;;;;;;;19.48;5.25;;;3.80;99.90;;;;;;4147266;28;20042;-80
2022/01/21 07:50:40;;;;;;;17.08;3.85;;;3.80;99.90;;;;;;4156800;28;20084;-79
2022/01/21 07:52:43;;;;;;;18.30;4.68;;;3.80;99.90;;;;;;4155201;28;20077;-80
2022/01/21 07:54:45;;;;;;;14.75;4.00;;;3.80;99.90;;;;;;4156072;28;20058;-79
2022/01/21 07:56:47;;;;;;;14.32;4.18;;;3.80;99.90;;;;;;4163197;28;20483;-79
2022/01/21 07:58:49;;;;;;;18.25;4.55;;;3.70;99.90;;;;;;4158810;28;20081;-79
2022/01/21 08:00:51;;;;;;;20.63;5.20;;;3.70;99.90;;;;;;4159910;28;20191;-78
2022/01/21 08:02:53;;;;;;;20.60;4.97;;;3.70;99.90;;;;;;4164120;28;20528;-77
2022/01/21 08:04:56;;;;;;;22.58;5.40;;;3.70;99.90;;;;;;4161267;28;20050;-80
2022/01/21 08:06:58;;;;;;;17.45;4.68;;;3.70;99.90;;;;;;4159333;28;20057;-78
2022/01/21 08:09:00;;;;;;;21.80;5.40;;;3.70;99.90;;;;;;4161646;28;20536;-79
2022/01/21 08:11:03;;;;;;;21.52;5.13;;;3.70;99.90;;;;;;4162349;28;20050;-79
2022/01/21 08:13:05;;;;;;;17.40;5.38;;;3.70;99.90;;;;;;4155226;28;20357;-82
2022/01/21 08:15:08;;;;;;;20.42;4.28;;;3.80;99.90;;;;;;4147034;28;20080;-86
2022/01/21 08:17:10;;;;;;;25.45;4.88;;;3.80;99.90;;;;;;4147254;28;20041;-81
2022/01/21 08:19:13;;;;;;;17.00;4.50;;;3.70;99.90;;;;;;4148262;28;20081;-81
2022/01/21 08:21:18;;;;;;;15.95;4.82;;;3.80;99.90;;;;;;4159653;28;20102;-80
2022/01/21 08:23:21;;;;;;;25.25;5.55;;;3.80;99.90;;;;;;4164061;28;20053;-80
2022/01/21 08:25:22;;;;;;;24.45;6.15;;;3.80;99.90;;;;;;4155269;28;20136;-80
2022/01/21 08:27:24;;;;;;;22.98;8.23;;;3.80;99.90;;;;;;4161179;28;20433;-80
2022/01/21 08:29:26;;;;;;;22.88;8.00;;;3.90;99.90;;;;;;4152635;28;20050;-81
2022/01/21 08:31:28;;;;;;;23.35;7.90;;;3.90;99.90;;;;;;4162260;28;20049;-79
2022/01/21 08:33:30;;;;;;;25.35;6.57;;;4.00;99.90;;;;;;4158319;28;20045;-81
2022/01/21 08:35:33;;;;;;;31.77;8.43;;;4.00;99.90;;;;;;4159448;28;20049;-80
2022/01/21 08:37:35;;;;;;;28.15;8.30;;;4.00;99.90;;;;;;4162718;28;20048;-80
2022/01/21 08:39:37;;;;;;;34.30;9.25;;;4.00;99.90;;;;;;4152076;28;20080;-80
2022/01/21 08:41:39;;;;;;;37.47;10.02;;;4.10;99.90;;;;;;4159382;28;20084;-80
2022/01/21 08:43:41;;;;;;;33.20;9.65;;;4.10;99.90;;;;;;4147839;28;20046;-81
2022/01/21 08:45:44;;;;;;;28.50;9.10;;;4.20;99.90;;;;;;4147645;28;20537;-79
2022/01/21 08:47:47;;;;;;;29.58;7.75;;;4.20;99.90;;;;;;4165400;28;20041;-79
2022/01/21 08:49:49;;;;;;;21.88;6.25;;;4.30;99.90;;;;;;4148247;28;20042;-79
2022/01/21 08:51:56;;;;;;;21.05;5.55;;;4.30;99.90;;;;;;4162310;28;20121;-80
2022/01/21 08:53:58;;;;;;;29.08;7.38;;;4.40;99.90;;;;;;4161781;28;20515;-79
2022/01/21 08:56:00;;;;;;;31.25;7.63;;;4.40;99.90;;;;;;4156056;28;20428;-79
2022/01/21 08:58:02;;;;;;;29.92;6.93;;;4.50;99.90;;;;;;4160370;28;20144;-80
2022/01/21 09:00:08;;;;;;;27.50;6.63;;;4.50;99.90;;;;;;4162221;28;20564;-79
2022/01/21 09:02:10;;;;;;;20.73;5.55;;;4.60;99.90;;;;;;4162184;28;20200;-79
2022/01/21 09:04:12;;;;;;;21.10;5.63;;;4.60;99.90;;;;;;4156295;28;20050;-80
2022/01/21 09:06:18;;;;;;;16.23;5.25;;;4.70;99.90;;;;;;4159329;28;20045;-79
2022/01/21 09:08:23;;;;;;;18.05;5.05;;;4.70;99.90;;;;;;4160934;28;20056;-82
2022/01/21 09:10:25;;;;;;;20.45;5.15;;;4.80;99.90;;;;;;4157968;28;20049;-78
2022/01/21 09:12:27;;;;;;;11.75;3.92;;;4.80;99.90;;;;;;4156983;28;20049;-80
2022/01/21 09:14:30;;;;;;;14.73;4.15;;;4.90;99.90;;;;;;4162747;28;20041;-80
2022/01/21 09:16:32;;;;;;;14.25;4.40;;;4.90;99.90;;;;;;4145838;28;20136;-80
2022/01/21 09:18:46;;;;;;;17.40;4.88;;;4.90;99.90;;;;;;4162564;28;20300;-80
2022/01/21 09:21:02;;;;;;;21.17;4.53;;;5.00;99.90;;;;;;4162539;28;20136;-81
2022/01/21 09:23:07;;;;;;;17.40;5.18;;;5.10;99.90;;;;;;4162352;28;20060;-79
2022/01/21 09:25:09;;;;;;;15.48;4.35;;;5.20;99.90;;;;;;4155520;28;20049;-82
2022/01/21 09:27:11;;;;;;;14.48;3.67;;;5.20;99.90;;;;;;4145720;28;20046;-81
2022/01/21 09:29:17;;;;;;;17.15;4.05;;;5.20;99.90;;;;;;4149117;28;20053;-80
2022/01/21 09:31:20;;;;;;;25.63;3.95;;;5.30;99.90;;;;;;4149706;28;20068;-79
2022/01/21 09:33:22;;;;;;;13.10;4.15;;;5.30;99.90;;;;;;4157006;28;20072;-81
2022/01/21 09:35:25;;;;;;;14.75;4.18;;;5.40;99.90;;;;;;4161853;28;20053;-79
2022/01/21 09:37:27;;;;;;;14.50;3.35;;;5.40;99.90;;;;;;4149969;28;20053;-79
2022/01/21 09:39:29;;;;;;;16.50;3.58;;;5.50;99.90;;;;;;4161155;28;20053;-79
2022/01/21 09:41:32;;;;;;;22.40;3.65;;;5.50;99.90;;;;;;4145257;28;20085;-79
2022/01/21 09:43:34;;;;;;;16.90;3.13;;;5.60;99.90;;;;;;4153576;28;20516;-80
2022/01/21 09:45:38;;;;;;;14.48;3.28;;;5.60;99.90;;;;;;4161501;28;20045;-81
2022/01/21 09:47:47;;;;;;;16.17;3.47;;;5.70;99.90;;;;;;4162304;28;20049;-79
2022/01/21 09:49:49;;;;;;;15.95;3.20;;;5.80;99.90;;;;;;4166814;28;20113;-78
2022/01/21 09:51:58;;;;;;;17.75;3.50;;;5.70;99.90;;;;;;4161228;28;20042;-81
2022/01/21 09:54:05;;;;;;;17.23;2.92;;;5.80;99.90;;;;;;4145271;28;20053;-81
2022/01/21 09:56:07;;;;;;;18.33;3.58;;;5.90;99.90;;;;;;4145154;28;20049;-79
2022/01/21 09:58:10;;;;;;;12.15;3.70;;;5.90;99.90;;;;;;4144613;28;20050;-80
2022/01/21 10:00:12;;;;;;;18.23;3.55;;;6.00;99.90;;;;;;4152778;28;20073;-79
2022/01/21 10:02:18;;;;;;;21.85;3.50;;;6.00;99.90;;;;;;4156266;28;20127;-79
2022/01/21 10:04:28;;;;;;;15.07;3.83;;;6.10;99.90;;;;;;4163333;28;20057;-78
2022/01/21 10:06:32;;;;;;;21.25;3.38;;;6.10;99.90;;;;;;4162791;28;20072;-79
2022/01/21 10:08:38;;;;;;;17.48;4.18;;;6.10;99.90;;;;;;4155456;28;20096;-79
2022/01/21 10:10:44;;;;;;;19.13;4.35;;;6.20;99.90;;;;;;4161294;28;20486;-76
2022/01/21 10:12:48;;;;;;;9.43;2.83;;;6.30;99.90;;;;;;4147236;28;20054;-76
2022/01/21 10:14:50;;;;;;;17.13;3.60;;;6.40;99.90;;;;;;4151115;28;20069;-78
2022/01/21 10:17:14;;;;;;;21.05;3.42;;;6.50;99.90;;;;;;4147071;28;20050;-79
2022/01/21 10:19:25;;;;;;;16.70;2.92;;;6.60;99.90;;;;;;4147094;28;20123;-82
2022/01/21 10:21:34;;;;;;;18.73;2.95;;;6.60;99.90;;;;;;4145133;28;20069;-79
2022/01/21 10:23:38;;;;;;;17.17;3.45;;;6.70;99.90;;;;;;4146977;28;20046;-79
2022/01/21 10:25:55;;;;;;;15.77;3.72;;;6.70;99.90;;;;;;4159061;28;20128;-78
2022/01/21 10:28:19;;;;;;;13.52;3.30;;;6.70;99.90;;;;;;4143928;28;20077;-79
2022/01/21 10:30:24;;;;;;;17.60;3.53;;;6.80;99.90;;;;;;4144229;28;20754;-80
2022/01/21 10:32:41;;;;;;;15.00;2.65;;;6.80;99.90;;;;;;4144400;28;20077;-78
2022/01/21 10:35:02;;;;;;;13.40;2.80;;;6.90;99.90;;;;;;4154378;28;20045;-79
2022/01/21 10:37:36;;;;;;;15.82;3.17;;;7.00;99.90;;;;;;4160431;28;20097;-78
2022/01/21 10:40:01;;;;;;;14.60;2.80;;;7.10;99.90;;;;;;4158015;28;20049;-79
2022/01/21 10:42:04;;;;;;;20.40;3.70;;;7.30;99.90;;;;;;4156303;28;20471;-80
2022/01/21 10:44:10;;;;;;;18.52;3.58;;;7.30;99.90;;;;;;4160333;28;20100;-78
2022/01/21 10:46:16;;;;;;;23.85;3.92;;;7.30;99.90;;;;;;4160482;28;20284;-79
2022/01/21 10:48:27;;;;;;;11.13;2.65;;;7.30;99.90;;;;;;4163125;28;20560;-79
2022/01/21 10:50:29;;;;;;;13.50;2.97;;;7.30;99.90;;;;;;4160602;28;20049;-79
2022/01/21 10:52:42;;;;;;;11.27;2.65;;;7.40;99.90;;;;;;4157719;28;20059;-79
2022/01/21 10:54:48;;;;;;;9.65;2.70;;;7.50;99.90;;;;;;4161303;28;20120;-79
2022/01/21 10:57:03;;;;;;;14.13;3.03;;;7.50;99.90;;;;;;4157310;28;20044;-80
2022/01/21 10:59:05;;;;;;;;;;;7.40;99.90;;;;;;4144581;28;20671;-79
2022/01/21 11:01:12;;;;;;;18.13;2.67;;;7.40;99.90;;;;;;4160154;28;19972;-83
2022/01/21 11:03:15;;;;;;;11.27;2.58;;;7.40;99.90;;;;;;4158245;28;20444;-79
2022/01/21 11:05:21;;;;;;;15.73;3.67;;;7.30;99.90;;;;;;4158711;28;20225;-79
2022/01/21 11:07:47;;;;;;;18.67;2.50;;;7.30;99.90;;;;;;4160337;28;20046;-79
2022/01/21 11:09:49;;;;;;;;;;;7.30;99.90;;;;;;4155630;28;20045;-80
2022/01/21 11:12:14;;;;;;;20.63;4.53;;;7.30;99.90;;;;;;4159644;28;20000;-80
2022/01/21 11:14:19;;;;;;;15.13;3.70;;;7.40;99.90;;;;;;4161189;28;20046;-79
2022/01/21 11:16:25;;;;;;;23.10;4.07;;;7.40;99.90;;;;;;4148804;28;20432;-79
2022/01/21 11:18:50;;;;;;;11.80;3.30;;;7.40;99.90;;;;;;4156034;28;20041;-80
2022/01/21 11:20:59;;;;;;;15.85;4.63;;;7.40;99.90;;;;;;4160050;28;20045;-80
2022/01/21 11:23:01;;;;;;;19.50;5.57;;;7.30;99.90;;;;;;4162955;28;20128;-81
2022/01/21 11:25:04;;;;;;;16.25;3.35;;;7.30;99.90;;;;;;4151618;28;20053;-79
2022/01/21 11:27:11;;;;;;;18.63;3.28;;;7.40;99.90;;;;;;4145444;28;20057;-79
2022/01/21 11:29:13;;;;;;;15.32;2.92;;;7.40;99.90;;;;;;4143371;28;20052;-79
2022/01/21 11:31:26;;;;;;;13.02;2.60;;;7.40;99.90;;;;;;4143982;28;20074;-79
2022/01/21 11:33:43;;;;;;;18.20;3.38;;;7.40;99.90;;;;;;4149411;28;20180;-80